Tenerife > ESTACION METEOROLÓGICA Las Carboneras - Santa Cruz de Tenerife

DATOS ACTUALES Online

Ultima actulizacion 32 minutos

14.3 ºC

Temperatura

96

Humedad (%)

948.66

Presión (mb)

3.7

Precipitación (mm)

36.8 N

Viento (Km/h)

DATOS DIARIOS

Temperatura últimas 24 horas (ºC)

Humedad últimas 24 horas (%)

Presión atmosférica últimas 24 horas (mb)

Precipitaciones últimas 23 horas (mm)

Viento últimas 24 horas (Km/h)

Hora Temperatura (°C) ºC Precipitación (mm) mm Presión (mb) mb Humedad (%) % Viento (Km/h) km/h
28 - 11:00 14.8 1.3 948 96 25 N
28 - 12:00 15.3 1.3 949 93 27.5 N
28 - 13:00 15.6 1.4 949 91 33.8 NW
28 - 14:00 16.1 1.4 948 87 29.6 N
28 - 15:00 16.4 1.4 948 85 38.6 N
28 - 16:00 15.9 1.4 948 91 34.3 N
28 - 17:00 15.1 2.2 948 94 34.7 N
28 - 18:00 15.6 2.5 948 93 40.8 NW
28 - 19:00 15.5 2.5 948 93 36.4 N
28 - 20:00 15.4 2.5 948 93 40.8 N
28 - 21:00 15.2 2.5 948 95 34.4 N
28 - 22:00 15.1 3.1 949 96 38.9 NW
28 - 23:00 15 3.1 949 95 43.5 NW
29 - 00:00 15.2 3.1 949 95 34.7 NW
29 - 01:00 14.9 0.2 948 95 41.4 NW
29 - 02:00 15.1 0.2 948 92 42.7 NW
29 - 03:00 15.1 0.2 947 85 26.4 NW
29 - 04:00 14.3 0.5 947 96 27.6 N
29 - 05:00 14.7 0.8 947 96 32.1 NW
29 - 06:00 14.3 1.9 947 96 47 NW
29 - 07:00 14.8 2.5 948 89 41 NW
29 - 08:00 14.8 2.5 948 93 46.9 NW
29 - 09:00 14.9 2.5 948 95 35.1 NW
29 - 10:00 14.3 3.7 949 96 36.8 N
29 - 11:00
Apalmet utiliza cookies propias y de terceros para mejorar la usabilidad y la experiencia web. Política de cookies.